Time;durP1;ratioP1;P1;durP2;ratioP2;P2;SDS_P1;SDS_P2;PMS_P1;PMS_P2;Temp;Humidity;BMP_temperature;BMP_pressure;BME280_temperature;BME280_humidity;BME280_pressure;Samples;Min_cycle;Max_cycle;Signal;HPM_P1;HPM_P2
2023/06/07 00:00:13;;;;;;;0.20;0.20;;;9.40;99.90;;;;;;5035803;28;20033;-75
2023/06/07 00:02:40;;;;;;;0.20;0.20;;;9.40;99.90;;;;;;5035692;28;20501;-75
2023/06/07 00:05:06;;;;;;;0.17;0.17;;;9.50;99.90;;;;;;5035806;28;20422;-75
2023/06/07 00:07:35;;;;;;;0.10;0.10;;;9.50;99.90;;;;;;5035621;28;20556;-75
2023/06/07 00:10:04;;;;;;;0.20;0.20;;;9.50;99.90;;;;;;5035781;28;20032;-75
2023/06/07 00:12:30;;;;;;;0.10;0.10;;;9.50;99.90;;;;;;5035520;28;20108;-75
2023/06/07 00:14:55;;;;;;;0.20;0.20;;;9.60;99.90;;;;;;5035161;28;20480;-75
2023/06/07 00:17:22;;;;;;;0.30;0.30;;;9.60;99.90;;;;;;5024438;28;20037;-75
2023/06/07 00:19:48;;;;;;;0.20;0.20;;;9.70;99.90;;;;;;5014096;28;20022;-75
2023/06/07 00:22:14;;;;;;;0.15;0.15;;;9.70;99.90;;;;;;5028157;28;20022;-75
2023/06/07 00:24:39;;;;;;;0.20;0.20;;;9.80;99.90;;;;;;5035215;28;20033;-75
2023/06/07 00:27:05;;;;;;;0.10;0.10;;;9.80;99.90;;;;;;5032169;28;20032;-75
2023/06/07 00:29:31;;;;;;;0.25;0.25;;;9.90;99.90;;;;;;5025552;28;20057;-74
2023/06/07 00:31:56;;;;;;;0.13;0.13;;;9.90;99.90;;;;;;5034708;28;20032;-75
2023/06/07 00:34:22;;;;;;;0.15;0.15;;;9.90;99.90;;;;;;5035064;28;20031;-75
2023/06/07 00:36:47;;;;;;;0.20;0.20;;;9.90;99.90;;;;;;5033536;28;20084;-75
2023/06/07 00:39:13;;;;;;;0.20;0.20;;;10.00;99.90;;;;;;5034943;28;20104;-75
2023/06/07 00:41:39;;;;;;;0.20;0.20;;;10.00;99.90;;;;;;5034650;28;20044;-75
2023/06/07 00:44:05;;;;;;;0.10;0.10;;;10.00;99.90;;;;;;5034992;28;20568;-75
2023/06/07 00:46:32;;;;;;;0.28;0.28;;;10.10;99.90;;;;;;5034705;28;20053;-76
2023/06/07 00:48:58;;;;;;;0.20;0.20;;;10.10;99.90;;;;;;5034996;28;20021;-75
2023/06/07 00:51:27;;;;;;;0.20;0.20;;;10.20;99.90;;;;;;5034547;28;20022;-75
2023/06/07 00:53:55;;;;;;;0.10;0.10;;;10.20;99.90;;;;;;5034821;28;20028;-75
2023/06/07 00:56:21;;;;;;;0.20;0.20;;;10.20;99.90;;;;;;5034560;28;20108;-75
2023/06/07 00:58:47;;;;;;;0.10;0.10;;;10.30;99.90;;;;;;5034563;28;20049;-75
2023/06/07 01:01:13;;;;;;;0.22;0.22;;;10.30;99.90;;;;;;5034323;28;20021;-75
2023/06/07 01:03:38;;;;;;;0.20;0.20;;;10.40;99.90;;;;;;5034418;28;20025;-75
2023/06/07 01:06:05;;;;;;;0.20;0.20;;;10.50;99.90;;;;;;5034554;28;20052;-75
2023/06/07 01:08:31;;;;;;;0.20;0.20;;;10.40;99.90;;;;;;5032889;28;20032;-75
2023/06/07 01:10:59;;;;;;;0.20;0.20;;;10.50;99.90;;;;;;5034238;28;20518;-75
2023/06/07 01:13:25;;;;;;;0.20;0.20;;;10.50;99.90;;;;;;5034211;28;20056;-75
2023/06/07 01:15:51;;;;;;;0.20;0.20;;;10.50;99.90;;;;;;5034499;28;20035;-76
2023/06/07 01:18:18;;;;;;;0.17;0.17;;;10.50;99.90;;;;;;5034033;28;20033;-75
2023/06/07 01:20:51;;;;;;;0.20;0.20;;;10.50;99.90;;;;;;5032719;28;20030;-75
2023/06/07 01:23:27;;;;;;;0.20;0.20;;;10.60;99.90;;;;;;5014452;28;20072;-75
2023/06/07 01:25:55;;;;;;;0.20;0.20;;;10.70;99.90;;;;;;5014496;28;20054;-75
2023/06/07 01:28:21;;;;;;;0.20;0.20;;;10.70;99.90;;;;;;5015157;28;20095;-75
2023/06/07 01:30:47;;;;;;;0.20;0.20;;;10.70;99.90;;;;;;5017956;28;20487;-75
2023/06/07 01:33:14;;;;;;;0.20;0.20;;;10.80;99.90;;;;;;5034008;28;20509;-76
2023/06/07 01:35:40;;;;;;;0.20;0.20;;;10.80;99.90;;;;;;5032762;28;20091;-76
2023/06/07 01:38:07;;;;;;;0.10;0.10;;;10.80;99.90;;;;;;5033911;28;20030;-76
2023/06/07 01:40:34;;;;;;;0.30;0.30;;;10.80;99.90;;;;;;5033875;28;20074;-75
2023/06/07 01:43:00;;;;;;;0.20;0.20;;;10.90;99.90;;;;;;5033776;28;20038;-76
2023/06/07 01:45:26;;;;;;;0.30;0.30;;;10.80;99.90;;;;;;5033905;28;20018;-76
2023/06/07 01:47:51;;;;;;;0.20;0.20;;;10.80;99.90;;;;;;5033756;28;20030;-76
2023/06/07 01:50:21;;;;;;;0.20;0.20;;;10.80;99.90;;;;;;5032485;28;20030;-75
2023/06/07 01:52:46;;;;;;;0.20;0.20;;;10.90;99.90;;;;;;5033603;28;20021;-75
2023/06/07 01:55:12;;;;;;;0.20;0.20;;;10.90;99.90;;;;;;5033675;28;20452;-76
2023/06/07 01:58:02;;;;;;;0.20;0.20;;;10.90;99.90;;;;;;5032310;28;20038;-76
2023/06/07 02:00:44;;;;;;;0.10;0.10;;;11.00;99.90;;;;;;5033723;28;20036;-76
2023/06/07 02:03:18;;;;;;;0.30;0.30;;;10.90;99.90;;;;;;5033816;28;20025;-75
2023/06/07 02:05:54;;;;;;;0.20;0.20;;;11.00;99.90;;;;;;5032800;28;20026;-75
2023/06/07 02:08:25;;;;;;;0.20;0.20;;;11.00;99.90;;;;;;5033793;28;20475;-75
2023/06/07 02:10:51;;;;;;;0.20;0.20;;;11.10;99.90;;;;;;5033532;28;20505;-75
2023/06/07 02:13:18;;;;;;;0.20;0.20;;;11.00;99.90;;;;;;5033763;28;20021;-76
2023/06/07 02:15:45;;;;;;;0.20;0.20;;;11.00;99.90;;;;;;5033802;28;20026;-75
2023/06/07 02:18:12;;;;;;;0.20;0.20;;;11.00;99.90;;;;;;5032835;28;20021;-75
2023/06/07 02:20:38;;;;;;;0.20;0.20;;;11.00;99.90;;;;;;5033092;28;20030;-75
2023/06/07 02:23:03;;;;;;;0.20;0.20;;;11.00;99.90;;;;;;5033561;28;20079;-76
2023/06/07 02:25:30;;;;;;;0.20;0.20;;;11.00;99.90;;;;;;5033194;28;20025;-76
2023/06/07 02:27:57;;;;;;;0.20;0.20;;;11.00;99.90;;;;;;5033518;28;20079;-76
2023/06/07 02:30:23;;;;;;;0.20;0.20;;;11.10;99.90;;;;;;5031977;28;20030;-76
2023/06/07 02:32:49;;;;;;;0.20;0.20;;;11.10;99.90;;;;;;5033303;28;20026;-75
2023/06/07 02:35:16;;;;;;;0.20;0.20;;;11.10;99.90;;;;;;5031836;28;20030;-76
2023/06/07 02:37:42;;;;;;;0.20;0.20;;;11.10;99.90;;;;;;5033033;28;20021;-75
2023/06/07 02:40:11;;;;;;;0.20;0.20;;;11.10;99.90;;;;;;5033025;28;20095;-75
2023/06/07 02:42:37;;;;;;;0.10;0.10;;;11.10;99.90;;;;;;5031623;28;20403;-76
2023/06/07 02:45:06;;;;;;;0.20;0.20;;;11.00;99.90;;;;;;5032999;28;20037;-76
2023/06/07 02:47:31;;;;;;;0.20;0.20;;;11.00;99.90;;;;;;5033287;28;20026;-76
2023/06/07 02:49:57;;;;;;;0.20;0.20;;;11.00;99.90;;;;;;5033091;28;20040;-76
2023/06/07 02:52:25;;;;;;;0.20;0.20;;;11.00;99.90;;;;;;5032868;28;20487;-76
2023/06/07 02:54:51;;;;;;;0.20;0.20;;;10.90;99.90;;;;;;5032885;28;20129;-75
2023/06/07 02:57:16;;;;;;;0.20;0.20;;;10.90;99.90;;;;;;5032857;28;20534;-75
2023/06/07 02:59:42;;;;;;;0.10;0.10;;;10.90;99.90;;;;;;5032848;28;20053;-75
2023/06/07 03:02:07;;;;;;;0.13;0.13;;;10.90;99.90;;;;;;5032762;28;20037;-76
2023/06/07 03:04:33;;;;;;;0.20;0.20;;;10.90;99.90;;;;;;5032902;28;20406;-76
2023/06/07 03:07:00;;;;;;;0.17;0.17;;;11.00;99.90;;;;;;5025499;28;20033;-75
2023/06/07 03:09:25;;;;;;;0.20;0.20;;;11.00;99.90;;;;;;5031745;28;20113;-75
2023/06/07 03:11:51;;;;;;;0.25;0.25;;;11.00;99.90;;;;;;5012927;28;20069;-75
2023/06/07 03:14:18;;;;;;;0.20;0.20;;;11.00;99.90;;;;;;5012901;28;20061;-75
2023/06/07 03:16:45;;;;;;;0.20;0.20;;;11.00;99.90;;;;;;5012708;28;20022;-76
2023/06/07 03:19:11;;;;;;;0.20;0.20;;;11.00;99.90;;;;;;5013100;28;20109;-75
2023/06/07 03:21:38;;;;;;;0.10;0.10;;;10.90;99.90;;;;;;5013094;28;20052;-75
2023/06/07 03:24:07;;;;;;;0.20;0.20;;;10.90;99.90;;;;;;5030007;28;20109;-76
2023/06/07 03:26:33;;;;;;;0.20;0.20;;;10.90;99.90;;;;;;5032491;28;20032;-75
2023/06/07 03:28:58;;;;;;;0.20;0.20;;;10.90;99.90;;;;;;5032595;28;20017;-76
2023/06/07 03:31:25;;;;;;;0.20;0.20;;;10.90;99.90;;;;;;5031254;28;20506;-75
2023/06/07 03:33:50;;;;;;;0.20;0.20;;;10.90;99.90;;;;;;5016565;28;20026;-75
2023/06/07 03:36:21;;;;;;;0.20;0.20;;;10.90;99.90;;;;;;5016964;28;20021;-75
2023/06/07 03:38:47;;;;;;;0.20;0.20;;;10.90;99.90;;;;;;5016723;28;20484;-75
2023/06/07 03:41:12;;;;;;;0.20;0.20;;;10.90;99.90;;;;;;5026797;28;20044;-75
2023/06/07 03:43:38;;;;;;;0.20;0.20;;;10.80;99.90;;;;;;5036101;28;20033;-75
2023/06/07 03:46:03;;;;;;;0.20;0.20;;;10.80;99.90;;;;;;5028814;28;20029;-75
2023/06/07 03:48:29;;;;;;;0.20;0.20;;;10.80;99.90;;;;;;5016118;28;20032;-75
2023/06/07 03:50:55;;;;;;;0.20;0.20;;;10.90;99.90;;;;;;5031217;28;20113;-76
2023/06/07 03:53:20;;;;;;;0.20;0.20;;;10.90;99.90;;;;;;5016208;28;20201;-76
2023/06/07 03:55:48;;;;;;;0.20;0.20;;;11.20;99.90;;;;;;5016143;28;20399;-76
2023/06/07 03:58:18;;;;;;;0.20;0.20;;;11.00;99.90;;;;;;5016074;28;20488;-75
2023/06/07 04:00:44;;;;;;;0.20;0.20;;;11.00;99.90;;;;;;5016264;28;20022;-75
2023/06/07 04:03:10;;;;;;;0.20;0.20;;;10.90;99.90;;;;;;5015987;28;20041;-76
2023/06/07 04:05:38;;;;;;;0.10;0.10;;;11.00;99.90;;;;;;5016494;28;20380;-76
2023/06/07 04:08:05;;;;;;;0.20;0.20;;;10.90;99.90;;;;;;5021790;28;20017;-76
2023/06/07 04:10:31;;;;;;;0.20;0.20;;;11.00;99.90;;;;;;5035971;28;20060;-76
2023/06/07 04:12:56;;;;;;;0.20;0.20;;;11.10;99.90;;;;;;5035381;28;20057;-75
2023/06/07 04:15:22;;;;;;;0.20;0.20;;;11.20;99.90;;;;;;5035840;28;20104;-75
2023/06/07 04:17:47;;;;;;;0.20;0.20;;;11.20;99.90;;;;;;5033150;28;20044;-75
2023/06/07 04:20:14;;;;;;;0.20;0.20;;;11.20;99.90;;;;;;5036054;28;20022;-76
2023/06/07 04:22:41;;;;;;;0.20;0.20;;;11.20;99.90;;;;;;5017198;28;20029;-75
2023/06/07 04:25:07;;;;;;;0.20;0.20;;;11.10;99.90;;;;;;5014072;28;20080;-75
2023/06/07 04:27:34;;;;;;;0.20;0.20;;;11.10;99.90;;;;;;5024051;28;20487;-75
2023/06/07 04:30:01;;;;;;;0.10;0.10;;;11.20;99.90;;;;;;5035289;28;20372;-75
2023/06/07 04:32:28;;;;;;;0.10;0.10;;;11.20;99.90;;;;;;5035284;28;20022;-76
2023/06/07 04:34:54;;;;;;;0.20;0.20;;;11.10;99.90;;;;;;5035262;28;20115;-76
2023/06/07 04:37:20;;;;;;;0.20;0.20;;;11.10;99.90;;;;;;5035084;28;20022;-75
2023/06/07 04:39:48;;;;;;;0.10;0.10;;;11.20;99.90;;;;;;5035022;28;20025;-75
2023/06/07 04:42:16;;;;;;;0.20;0.20;;;11.20;99.90;;;;;;5033140;28;20025;-75
2023/06/07 04:44:43;;;;;;;0.20;0.20;;;11.20;99.90;;;;;;5035262;28;20052;-75
2023/06/07 04:47:09;;;;;;;0.10;0.10;;;11.30;99.90;;;;;;5035266;28;20101;-76
2023/06/07 04:49:35;;;;;;;0.20;0.20;;;11.30;99.90;;;;;;5034891;28;20104;-75
2023/06/07 04:52:03;;;;;;;0.10;0.10;;;11.30;99.90;;;;;;5033613;28;20054;-76
2023/06/07 04:54:29;;;;;;;0.20;0.20;;;11.20;99.90;;;;;;5034763;28;20030;-76
2023/06/07 04:56:56;;;;;;;0.20;0.20;;;11.30;99.90;;;;;;5034718;28;20028;-76
2023/06/07 04:59:22;;;;;;;0.13;0.13;;;11.30;99.90;;;;;;5035217;28;20368;-75
2023/06/07 05:01:48;;;;;;;0.28;0.28;;;11.40;99.90;;;;;;5034706;28;20029;-75
2023/06/07 05:04:16;;;;;;;0.20;0.20;;;11.40;99.90;;;;;;5034702;28;20025;-76
2023/06/07 05:06:42;;;;;;;0.20;0.20;;;11.50;99.90;;;;;;5034652;28;20033;-76
2023/06/07 05:09:08;;;;;;;0.20;0.20;;;11.40;99.90;;;;;;5034597;28;20048;-75
2023/06/07 05:11:33;;;;;;;0.20;0.20;;;11.40;99.90;;;;;;5034450;28;20025;-75
2023/06/07 05:13:59;;;;;;;0.20;0.20;;;11.60;99.90;;;;;;5034728;28;20057;-76
2023/06/07 05:16:24;;;;;;;0.10;0.10;;;11.60;99.90;;;;;;5033881;28;20025;-75
2023/06/07 05:18:50;;;;;;;0.20;0.20;;;11.60;99.90;;;;;;5034773;28;20021;-75
2023/06/07 05:21:16;;;;;;;0.10;0.10;;;11.60;99.90;;;;;;5034208;28;20039;-75
2023/06/07 05:23:42;;;;;;;0.10;0.10;;;11.60;99.90;;;;;;5034283;28;20025;-75
2023/06/07 05:26:08;;;;;;;0.20;0.20;;;11.70;99.90;;;;;;5034196;28;20056;-75
2023/06/07 05:28:35;;;;;;;0.10;0.10;;;11.60;99.90;;;;;;5034478;28;20125;-75
2023/06/07 05:31:01;;;;;;;0.20;0.20;;;11.60;99.90;;;;;;5034030;28;20030;-76
2023/06/07 05:33:30;;;;;;;0.20;0.20;;;11.70;99.90;;;;;;5034373;28;20491;-75
2023/06/07 05:35:56;;;;;;;0.10;0.10;;;11.70;99.90;;;;;;5034042;28;20067;-76
2023/06/07 05:38:22;;;;;;;0.20;0.20;;;11.70;99.90;;;;;;5033905;28;20036;-75
2023/06/07 05:40:48;;;;;;;0.20;0.20;;;11.80;99.90;;;;;;5033737;28;20112;-75
2023/06/07 05:43:14;;;;;;;0.20;0.20;;;11.80;99.90;;;;;;5034281;28;20037;-76
2023/06/07 05:45:41;;;;;;;0.20;0.20;;;12.00;99.90;;;;;;5033987;28;20017;-76
2023/06/07 05:48:06;;;;;;;0.20;0.20;;;11.90;99.90;;;;;;5033729;28;20372;-76
2023/06/07 05:50:32;;;;;;;0.20;0.20;;;11.90;99.90;;;;;;5033728;28;20021;-75
2023/06/07 05:52:58;;;;;;;0.20;0.20;;;12.00;99.90;;;;;;5033275;28;20042;-76
2023/06/07 05:55:25;;;;;;;0.20;0.20;;;12.00;99.90;;;;;;5033405;28;20025;-75
2023/06/07 05:57:51;;;;;;;0.20;0.20;;;12.00;99.90;;;;;;5033606;28;20088;-75
2023/06/07 06:00:17;;;;;;;0.20;0.20;;;12.00;99.90;;;;;;5032418;28;20029;-75
2023/06/07 06:02:45;;;;;;;0.10;0.10;;;12.00;99.90;;;;;;5033519;28;20029;-74
2023/06/07 06:05:11;;;;;;;0.20;0.20;;;12.00;99.90;;;;;;5033599;28;20022;-74
2023/06/07 06:07:37;;;;;;;0.20;0.20;;;12.00;99.90;;;;;;5017648;28;20504;-75
2023/06/07 06:10:04;;;;;;;0.20;0.20;;;12.20;99.90;;;;;;5022464;28;20025;-75
2023/06/07 06:12:30;;;;;;;0.20;0.20;;;12.10;99.90;;;;;;5033401;28;20021;-75
2023/06/07 06:14:56;;;;;;;0.20;0.20;;;12.20;99.90;;;;;;5033416;28;20037;-76
2023/06/07 06:17:22;;;;;;;0.30;0.30;;;12.30;99.90;;;;;;5031754;28;20550;-76
2023/06/07 06:19:47;;;;;;;0.20;0.20;;;12.30;99.90;;;;;;5031476;28;20067;-75
2023/06/07 06:22:13;;;;;;;0.20;0.20;;;12.30;99.90;;;;;;5023521;28;20025;-75
2023/06/07 06:24:38;;;;;;;0.20;0.20;;;12.40;99.90;;;;;;5033162;28;20057;-75
2023/06/07 06:27:06;;;;;;;0.20;0.20;;;12.40;99.90;;;;;;5033216;28;20033;-77
2023/06/07 06:29:32;;;;;;;0.20;0.20;;;12.40;99.90;;;;;;5031932;28;20025;-76
2023/06/07 06:31:58;;;;;;;0.20;0.20;;;12.40;99.90;;;;;;5033173;28;20022;-76
2023/06/07 06:34:24;;;;;;;0.20;0.20;;;12.50;99.90;;;;;;5031876;28;20033;-76
2023/06/07 06:36:50;;;;;;;0.20;0.20;;;12.60;99.90;;;;;;5033083;28;20021;-76
2023/06/07 06:39:16;;;;;;;0.10;0.10;;;12.60;99.90;;;;;;5016723;28;20384;-76
2023/06/07 06:41:42;;;;;;;0.20;0.20;;;12.60;99.90;;;;;;5015269;28;20040;-76
2023/06/07 06:44:07;;;;;;;0.20;0.20;;;12.60;99.90;;;;;;5033000;28;20034;-75
2023/06/07 06:46:33;;;;;;;0.20;0.20;;;12.60;99.90;;;;;;5033017;28;20052;-75
2023/06/07 06:48:58;;;;;;;0.10;0.10;;;12.70;99.90;;;;;;5032877;28;20029;-76
2023/06/07 06:51:24;;;;;;;0.20;0.20;;;12.70;99.90;;;;;;5032784;28;20545;-76
2023/06/07 06:53:50;;;;;;;0.17;0.17;;;12.80;99.90;;;;;;5032921;28;20083;-76
2023/06/07 06:56:15;;;;;;;0.20;0.20;;;12.80;99.90;;;;;;5033102;28;20021;-76
2023/06/07 06:58:41;;;;;;;0.20;0.20;;;12.60;99.90;;;;;;5032370;28;20025;-75
2023/06/07 07:01:07;;;;;;;0.20;0.20;;;12.60;99.90;;;;;;5033301;28;20105;-76
2023/06/07 07:03:33;;;;;;;0.20;0.20;;;12.60;99.90;;;;;;5032816;28;20022;-76
2023/06/07 07:05:58;;;;;;;0.20;0.20;;;12.60;99.90;;;;;;5035598;28;20028;-75
2023/06/07 07:08:25;;;;;;;0.20;0.20;;;12.70;99.90;;;;;;5037058;28;20025;-76
2023/06/07 07:10:51;;;;;;;0.10;0.10;;;12.70;99.90;;;;;;5036693;28;20030;-75
2023/06/07 07:13:17;;;;;;;0.20;0.20;;;12.70;99.90;;;;;;5036523;28;20402;-76
2023/06/07 07:15:43;;;;;;;0.20;0.20;;;12.80;99.90;;;;;;5035571;28;20029;-76
2023/06/07 07:18:08;;;;;;;0.20;0.20;;;12.90;99.90;;;;;;5035040;28;20032;-76
2023/06/07 07:20:35;;;;;;;0.15;0.15;;;12.90;99.90;;;;;;5035276;28;20391;-76
2023/06/07 07:23:01;;;;;;;0.10;0.10;;;13.10;99.90;;;;;;5035723;28;20026;-76
2023/06/07 07:25:27;;;;;;;0.20;0.20;;;13.10;99.90;;;;;;5036544;28;20433;-76
2023/06/07 07:27:53;;;;;;;0.20;0.20;;;13.10;99.90;;;;;;5027640;28;20025;-76
2023/06/07 07:30:19;;;;;;;0.20;0.20;;;13.20;99.90;;;;;;5016851;28;20038;-76
2023/06/07 07:32:44;;;;;;;0.20;0.20;;;13.20;99.90;;;;;;5016313;28;20074;-76
2023/06/07 07:35:10;;;;;;;0.15;0.15;;;13.20;99.90;;;;;;5015290;28;20447;-76
2023/06/07 07:37:38;;;;;;;0.20;0.20;;;13.30;99.90;;;;;;5031465;28;20094;-76
2023/06/07 07:40:05;;;;;;;0.20;0.20;;;13.40;99.90;;;;;;5016210;28;20033;-76
2023/06/07 07:42:31;;;;;;;0.20;0.20;;;13.40;99.90;;;;;;5016250;28;20544;-76
2023/06/07 07:44:56;;;;;;;0.20;0.20;;;13.50;99.90;;;;;;5034682;28;20033;-76
2023/06/07 07:47:22;;;;;;;0.20;0.20;;;13.40;99.90;;;;;;5035838;28;20057;-76
2023/06/07 07:49:47;;;;;;;0.10;0.10;;;13.70;99.90;;;;;;5035955;28;20045;-76
2023/06/07 07:52:13;;;;;;;0.20;0.20;;;13.60;99.90;;;;;;5035760;28;20108;-76
2023/06/07 07:54:39;;;;;;;0.20;0.20;;;13.70;99.90;;;;;;5036862;28;20025;-80
2023/06/07 07:57:04;;;;;;;0.20;0.20;;;13.80;99.90;;;;;;5037064;28;20079;-77
2023/06/07 07:59:30;;;;;;;0.20;0.20;;;13.70;99.90;;;;;;5037086;28;20017;-77
2023/06/07 08:01:56;;;;;;;0.20;0.20;;;13.70;99.90;;;;;;5037343;28;20076;-77
2023/06/07 08:04:21;;;;;;;0.20;0.20;;;13.80;99.90;;;;;;5038413;28;20391;-79
2023/06/07 08:06:47;;;;;;;0.20;0.20;;;13.90;99.90;;;;;;5038429;28;20056;-78
2023/06/07 08:09:14;;;;;;;0.20;0.20;;;14.10;99.90;;;;;;5037884;28;20033;-76
2023/06/07 08:11:39;;;;;;;0.10;0.10;;;14.20;99.90;;;;;;5037225;28;20057;-78
2023/06/07 08:14:05;;;;;;;0.20;0.20;;;14.10;99.90;;;;;;5036632;28;20032;-77
2023/06/07 08:16:30;;;;;;;0.20;0.20;;;14.10;99.90;;;;;;5033628;28;20041;-77
2023/06/07 08:18:59;;;;;;;0.15;0.15;;;14.10;99.90;;;;;;5035800;28;20071;-76
2023/06/07 08:21:25;;;;;;;0.20;0.20;;;14.20;99.90;;;;;;5033722;28;20569;-77
2023/06/07 08:23:54;;;;;;;0.20;0.20;;;14.40;99.90;;;;;;5016942;28;20018;-76
2023/06/07 08:26:20;;;;;;;0.15;0.15;;;14.70;99.90;;;;;;5015716;28;20021;-76
2023/06/07 08:28:46;;;;;;;0.10;0.10;;;14.70;99.90;;;;;;5019773;28;20156;-75
2023/06/07 08:31:11;;;;;;;0.17;0.17;;;14.70;99.90;;;;;;5015366;28;20041;-73
2023/06/07 08:33:37;;;;;;;0.10;0.10;;;14.80;99.90;;;;;;5031447;28;20040;-75
2023/06/07 08:36:03;;;;;;;0.10;0.10;;;14.70;99.90;;;;;;5030745;28;20570;-75
2023/06/07 08:38:29;;;;;;;0.20;0.20;;;14.90;99.90;;;;;;5034752;28;20025;-75
2023/06/07 08:40:56;;;;;;;0.20;0.20;;;14.90;99.90;;;;;;5034981;28;20494;-75
2023/06/07 08:43:23;;;;;;;0.20;0.20;;;15.00;99.90;;;;;;5035088;28;20021;-76
2023/06/07 08:45:50;;;;;;;0.20;0.20;;;15.00;99.90;;;;;;5035021;28;20057;-76
2023/06/07 08:48:16;;;;;;;0.10;0.10;;;14.80;99.90;;;;;;5034729;28;20026;-76
2023/06/07 08:50:45;;;;;;;0.20;0.20;;;14.90;99.90;;;;;;5035104;28;20052;-76
2023/06/07 08:53:18;;;;;;;0.20;0.20;;;15.00;99.90;;;;;;5034834;28;20036;-76
2023/06/07 08:55:44;;;;;;;0.10;0.10;;;14.90;99.90;;;;;;5034857;28;20113;-76
2023/06/07 08:58:10;;;;;;;0.13;0.13;;;15.00;99.90;;;;;;5034483;28;20116;-76
2023/06/07 09:00:36;;;;;;;0.10;0.10;;;14.90;99.90;;;;;;5028334;28;20022;-75
2023/06/07 09:03:03;;;;;;;0.10;0.10;;;15.00;99.90;;;;;;5013213;28;20052;-76
2023/06/07 09:05:29;;;;;;;0.10;0.10;;;15.10;99.90;;;;;;5019489;28;20013;-76
2023/06/07 09:07:55;;;;;;;0.17;0.17;;;14.90;99.90;;;;;;5034536;28;20041;-75
2023/06/07 09:10:21;;;;;;;0.20;0.20;;;14.70;99.90;;;;;;5034311;28;20025;-75
2023/06/07 09:12:48;;;;;;;0.10;0.10;;;14.60;99.90;;;;;;5034318;28;20159;-75
2023/06/07 09:15:21;;;;;;;0.20;0.20;;;14.60;99.90;;;;;;5034369;28;20041;-76
2023/06/07 09:17:53;;;;;;;0.10;0.10;;;14.90;99.90;;;;;;5034231;28;20108;-75
2023/06/07 09:20:21;;;;;;;0.20;0.20;;;14.90;99.90;;;;;;5034280;28;20021;-76
2023/06/07 09:23:19;;;;;;;0.10;0.10;;;15.00;99.90;;;;;;5033952;28;20033;-76
2023/06/07 09:25:53;;;;;;;0.20;0.20;;;15.10;99.90;;;;;;5011199;28;20026;-75
2023/06/07 09:28:18;;;;;;;0.10;0.10;;;15.00;99.90;;;;;;5034369;28;20112;-75
2023/06/07 09:30:55;;;;;;;0.20;0.20;;;15.40;99.90;;;;;;5033978;28;20450;-76
2023/06/07 09:33:33;;;;;;;0.15;0.15;;;15.60;99.90;;;;;;5034192;28;20163;-75
2023/06/07 09:36:07;;;;;;;0.20;0.20;;;15.50;99.90;;;;;;5032816;28;20025;-76
2023/06/07 09:38:34;;;;;;;0.20;0.20;;;15.30;99.90;;;;;;5033962;28;20021;-76
2023/06/07 09:41:00;;;;;;;0.10;0.10;;;15.20;99.90;;;;;;5032467;28;20021;-76
2023/06/07 09:43:26;;;;;;;0.20;0.20;;;15.30;99.90;;;;;;5032706;28;20028;-76
2023/06/07 09:45:56;;;;;;;0.20;0.20;;;15.30;99.90;;;;;;5033143;28;20022;-74
2023/06/07 09:48:22;;;;;;;0.20;0.20;;;15.20;99.90;;;;;;5033664;28;20557;-76
2023/06/07 09:50:58;;;;;;;0.10;0.10;;;15.10;99.90;;;;;;5031272;28;20068;-77
2023/06/07 09:53:24;;;;;;;0.20;0.20;;;15.20;99.90;;;;;;5033696;28;20033;-76
2023/06/07 09:55:49;;;;;;;0.10;0.10;;;15.50;99.90;;;;;;5033457;28;20021;-77
2023/06/07 09:58:23;;;;;;;0.20;0.20;;;15.60;99.90;;;;;;5035050;28;20033;-77
2023/06/07 10:00:49;;;;;;;;;;;15.50;99.90;;;;;;5034118;28;20053;-77
2023/06/07 10:03:15;;;;;;;0.20;0.20;;;15.70;99.90;;;;;;5033658;28;19909;-77
2023/06/07 10:05:42;;;;;;;0.10;0.10;;;15.80;99.90;;;;;;5033214;28;20029;-77
2023/06/07 10:08:10;;;;;;;0.20;0.20;;;15.80;99.90;;;;;;5033573;28;20030;-77
2023/06/07 10:10:39;;;;;;;0.10;0.10;;;15.90;99.90;;;;;;5034054;28;20516;-75
2023/06/07 10:13:05;;;;;;;0.10;0.10;;;15.90;99.90;;;;;;5033715;28;20430;-77
2023/06/07 10:15:33;;;;;;;0.10;0.10;;;15.90;99.90;;;;;;5035237;28;20022;-77
2023/06/07 10:18:19;;;;;;;0.13;0.13;;;16.00;99.90;;;;;;5033870;28;20092;-77
2023/06/07 10:21:11;;;;;;;0.10;0.10;;;16.10;99.90;;;;;;5033850;28;20013;-78
2023/06/07 10:23:55;;;;;;;0.17;0.17;;;16.10;99.90;;;;;;5033164;28;20069;-79
2023/06/07 10:26:45;;;;;;;0.20;0.20;;;16.20;99.90;;;;;;5033255;28;20397;-79
2023/06/07 10:29:23;;;;;;;0.20;0.20;;;16.10;99.90;;;;;;5030399;28;20030;-78
2023/06/07 10:31:57;;;;;;;0.20;0.20;;;16.20;99.90;;;;;;5022189;28;20048;-79
2023/06/07 10:34:23;;;;;;;0.20;0.20;;;16.30;99.90;;;;;;5034606;28;20032;-80
2023/06/07 10:36:49;;;;;;;0.20;0.20;;;16.40;99.90;;;;;;5034870;28;20030;-77
2023/06/07 10:39:14;;;;;;;0.10;0.10;;;16.40;99.90;;;;;;5034054;28;20017;-77
2023/06/07 10:41:41;;;;;;;0.10;0.10;;;16.50;99.90;;;;;;5036282;28;20503;-78
2023/06/07 10:44:07;;;;;;;0.20;0.20;;;16.50;99.90;;;;;;5034614;28;20053;-78
2023/06/07 10:46:33;;;;;;;0.10;0.10;;;16.90;99.90;;;;;;5034689;28;20029;-77
2023/06/07 10:48:59;;;;;;;0.20;0.20;;;17.00;99.90;;;;;;5034712;28;20102;-78
2023/06/07 10:51:55;;;;;;;0.10;0.10;;;16.90;99.90;;;;;;5033439;28;20029;-77
2023/06/07 10:54:38;;;;;;;0.10;0.10;;;17.00;99.90;;;;;;5033891;28;20485;-78
2023/06/07 10:57:04;;;;;;;0.20;0.20;;;17.30;99.90;;;;;;5033377;28;20111;-77
2023/06/07 10:59:30;;;;;;;0.20;0.20;;;17.20;99.90;;;;;;5033561;28;20037;-78
2023/06/07 11:02:23;;;;;;;0.10;0.10;;;17.30;99.90;;;;;;5031925;28;20026;-78
2023/06/07 11:04:53;;;;;;;0.10;0.10;;;17.10;99.90;;;;;;5025734;28;20415;-78
2023/06/07 11:07:32;;;;;;;0.10;0.10;;;17.00;99.90;;;;;;5033058;28;20025;-78
2023/06/07 11:10:07;;;;;;;0.20;0.20;;;17.20;99.90;;;;;;5033421;28;20029;-78
2023/06/07 11:12:35;;;;;;;0.10;0.10;;;17.40;99.90;;;;;;5031935;28;20548;-77
2023/06/07 11:15:30;;;;;;;0.13;0.13;;;17.30;99.90;;;;;;5033121;28;20037;-78
2023/06/07 11:18:05;;;;;;;0.20;0.20;;;17.00;99.90;;;;;;5031706;28;20175;-77
2023/06/07 11:20:37;;;;;;;0.20;0.20;;;17.20;99.90;;;;;;5032091;28;20024;-78
2023/06/07 11:23:27;;;;;;;0.10;0.10;;;17.20;99.90;;;;;;5033035;28;20147;-78
2023/06/07 11:26:05;;;;;;;0.15;0.15;;;17.30;99.90;;;;;;5033305;28;20024;-78
2023/06/07 11:28:32;;;;;;;0.17;0.17;;;17.20;99.90;;;;;;5032996;28;20017;-78
2023/06/07 11:31:00;;;;;;;0.13;0.13;;;17.30;99.90;;;;;;5033097;28;20026;-78
2023/06/07 11:33:27;;;;;;;0.10;0.10;;;17.40;99.90;;;;;;5033048;28;20036;-78
2023/06/07 11:35:53;;;;;;;0.20;0.20;;;17.80;99.90;;;;;;5031883;28;20148;-78
2023/06/07 11:38:21;;;;;;;0.10;0.10;;;18.00;99.90;;;;;;5032746;28;20033;-79
2023/06/07 11:40:47;;;;;;;0.20;0.20;;;18.40;99.90;;;;;;5032646;28;20025;-80
2023/06/07 11:43:14;;;;;;;0.10;0.10;;;18.30;99.90;;;;;;5033054;28;20407;-79
2023/06/07 11:45:41;;;;;;;0.15;0.15;;;18.10;99.90;;;;;;5033209;28;20032;-78
2023/06/07 11:48:06;;;;;;;0.10;0.10;;;18.20;99.90;;;;;;5032970;28;20487;-78
2023/06/07 11:50:37;;;;;;;0.20;0.20;;;18.60;99.90;;;;;;5033423;28;20040;-78
2023/06/07 11:53:04;;;;;;;0.10;0.10;;;18.60;99.90;;;;;;5035613;28;20025;-78
2023/06/07 11:55:30;;;;;;;0.10;0.10;;;18.90;99.90;;;;;;5035791;28;20076;-78
2023/06/07 11:57:59;;;;;;;0.10;0.10;;;18.90;99.90;;;;;;5035228;28;20060;-78
2023/06/07 12:00:25;;;;;;;0.10;0.10;;;18.90;99.90;;;;;;5035985;28;20040;-78
2023/06/07 12:02:52;;;;;;;0.10;0.10;;;18.80;99.90;;;;;;5037197;28;20024;-78
2023/06/07 12:05:19;;;;;;;0.10;0.10;;;18.90;99.90;;;;;;5034910;28;20064;-78
2023/06/07 12:07:53;;;;;;;0.10;0.10;;;18.90;99.90;;;;;;5035172;28;20021;-79
2023/06/07 12:10:28;;;;;;;0.10;0.10;;;18.90;99.90;;;;;;5036307;28;20057;-78
2023/06/07 12:13:26;;;;;;;0.10;0.10;;;18.50;99.90;;;;;;5037302;28;20029;-78
2023/06/07 12:15:55;;;;;;;0.10;0.10;;;18.60;99.90;;;;;;4996081;28;20068;-77
2023/06/07 12:18:29;;;;;;;0.10;0.10;;;18.80;99.90;;;;;;5038577;28;20033;-77
2023/06/07 12:21:03;;;;;;;0.10;0.10;;;18.80;99.90;;;;;;5040832;28;20030;-78
2023/06/07 12:23:28;;;;;;;0.10;0.10;;;18.80;99.90;;;;;;5039823;28;20021;-76
2023/06/07 12:26:11;;;;;;;0.10;0.10;;;18.60;99.90;;;;;;5040264;28;20029;-78
2023/06/07 12:28:38;;;;;;;0.10;0.10;;;19.10;99.90;;;;;;5038493;28;20061;-77
2023/06/07 12:31:19;;;;;;;0.10;0.10;;;19.20;99.90;;;;;;5037746;28;20025;-76
2023/06/07 12:34:05;;;;;;;0.10;0.10;;;19.40;99.90;;;;;;5039290;28;20376;-78
2023/06/07 12:36:35;;;;;;;0.10;0.10;;;19.70;99.90;;;;;;5038814;28;20089;-76
2023/06/07 12:39:07;;;;;;;0.10;0.10;;;20.70;99.90;;;;;;5038601;28;20028;-77
2023/06/07 12:41:33;;;;;;;0.10;0.10;;;21.20;99.90;;;;;;5037022;28;20446;-77
2023/06/07 12:44:01;;;;;;;0.10;0.10;;;21.00;99.90;;;;;;5037710;28;20087;-77
2023/06/07 12:46:27;;;;;;;0.10;0.10;;;20.80;99.90;;;;;;5036629;28;20552;-77
2023/06/07 12:48:52;;;;;;;0.10;0.10;;;20.30;99.90;;;;;;5038110;28;20029;-78
2023/06/07 12:51:18;;;;;;;0.10;0.10;;;20.00;99.90;;;;;;5038609;28;20110;-76